Terminal Aerodrome Forecast
Issued by NWS

Home | Current Version | Previous Version | Text Only | Print | Product List | Glossary On
Versions: 1 2 3 4 5 6 7 8 9 10 11 12 13 14 15 16
706
FTUS43 KMQT 211724
TAFIWD
TAF
KIWD 211724Z 2118/2218 12005KT 3SM -RA BR OVC008
     FM212200 11003KT 2SM -RA BR OVC003
     FM220100 10003KT 1 1/2SM -RA BR OVC003
     FM220600 00000KT 3SM BR OVC003=

USA.gov is the U.S. government's official web portal to all federal, state and local government web resources and services.